Time;durP1;ratioP1;P1;durP2;ratioP2;P2;SDS_P1;SDS_P2;PMS_P1;PMS_P2;Temp;Humidity;BMP_temperature;BMP_pressure;BME280_temperature;BME280_humidity;BME280_pressure;Samples;Min_cycle;Max_cycle;Signal;HPM_P1;HPM_P2
2023/10/21 00:00:05;;;;;;;90.07;38.67;;;;;;;;;;5073412;28;20043;-60
2023/10/21 00:02:31;;;;;;;91.70;37.90;;;;;;;;;;5068533;28;20123;-60
2023/10/21 00:04:58;;;;;;;94.65;38.55;;;;;;;;;;5071076;28;20037;-60
2023/10/21 00:07:24;;;;;;;99.10;39.17;;;;;;;;;;5073112;28;20063;-60
2023/10/21 00:09:51;;;;;;;92.40;37.33;;;;;;;;;;5072629;28;20106;-60
2023/10/21 00:12:17;;;;;;;93.05;36.38;;;;;;;;;;5073297;28;20097;-60
2023/10/21 00:14:43;;;;;;;88.15;34.83;;;;;;;;;;5071977;28;20063;-60
2023/10/21 00:17:09;;;;;;;94.10;38.22;;;;;;;;;;5070537;28;20051;-60
2023/10/21 00:19:36;;;;;;;84.47;35.20;;;;;;;;;;5071468;28;20229;-60
2023/10/21 00:22:03;;;;;;;80.20;33.25;;;;;;;;;;5072512;28;20040;-60
2023/10/21 00:24:29;;;;;;;86.57;35.65;;;;;;;;;;5070422;28;20131;-60
2023/10/21 00:26:55;;;;;;;73.97;32.92;;;;;;;;;;5071449;28;20545;-60
2023/10/21 00:29:21;;;;;;;76.95;32.53;;;;;;;;;;5069842;28;20463;-60
2023/10/21 00:31:48;;;;;;;79.75;32.92;;;;;;;;;;5069353;28;20127;-60
2023/10/21 00:34:14;;;;;;;78.22;31.30;;;;;;;;;;5070939;28;20076;-60
2023/10/21 00:36:40;;;;;;;77.40;31.13;;;;;;;;;;5071648;28;20037;-60
2023/10/21 00:39:10;;;;;;;75.90;31.60;;;;;;;;;;5071832;28;20048;-60
2023/10/21 00:41:36;;;;;;;89.25;31.48;;;;;;;;;;5071726;28;20131;-60
2023/10/21 00:44:04;;;;;;;80.25;29.88;;;;;;;;;;5072823;28;20040;-60
2023/10/21 00:46:30;;;;;;;80.30;30.73;;;;;;;;;;5068377;28;20490;-60
2023/10/21 00:48:57;;;;;;;83.03;30.55;;;;;;;;;;5071512;28;20407;-60
2023/10/21 00:51:23;;;;;;;78.30;30.73;;;;;;;;;;5071712;28;20040;-60
2023/10/21 00:53:49;;;;;;;104.60;32.80;;;;;;;;;;5072582;28;20133;-60
2023/10/21 00:56:15;;;;;;;82.35;30.73;;;;;;;;;;5067732;28;20037;-60
2023/10/21 00:58:42;;;;;;;84.47;31.35;;;;;;;;;;5065461;28;20087;-60
2023/10/21 01:01:10;;;;;;;83.70;30.38;;;;;;;;;;5070374;28;20055;-60
2023/10/21 01:03:37;;;;;;;85.07;30.85;;;;;;;;;;5071654;28;20056;-60
2023/10/21 01:06:04;;;;;;;76.70;28.67;;;;;;;;;;5070325;28;20044;-60
2023/10/21 01:08:30;;;;;;;80.38;29.45;;;;;;;;;;5071601;28;20032;-60
2023/10/21 01:10:58;;;;;;;74.32;27.65;;;;;;;;;;5071399;28;20052;-60
2023/10/21 01:13:24;;;;;;;70.25;27.23;;;;;;;;;;5070401;28;20567;-60
2023/10/21 01:15:50;;;;;;;73.78;27.15;;;;;;;;;;5069633;28;20044;-60
2023/10/21 01:18:16;;;;;;;80.30;28.50;;;;;;;;;;5070336;28;20499;-60
2023/10/21 01:20:42;;;;;;;84.38;28.23;;;;;;;;;;5069678;28;20452;-60
2023/10/21 01:23:09;;;;;;;85.15;28.10;;;;;;;;;;5071795;28;20378;-60
2023/10/21 01:25:35;;;;;;;69.47;26.15;;;;;;;;;;5070121;28;20135;-60
2023/10/21 01:28:01;;;;;;;79.72;26.63;;;;;;;;;;5067159;28;20094;-60
2023/10/21 01:30:28;;;;;;;73.10;26.83;;;;;;;;;;5070915;28;20056;-60
2023/10/21 01:32:54;;;;;;;67.03;25.55;;;;;;;;;;5070720;28;20041;-60
2023/10/21 01:35:21;;;;;;;71.57;25.75;;;;;;;;;;5070194;28;20441;-60
2023/10/21 01:37:48;;;;;;;71.38;26.55;;;;;;;;;;5070842;28;20066;-60
2023/10/21 01:40:14;;;;;;;72.00;25.73;;;;;;;;;;5071126;28;20056;-60
2023/10/21 01:42:41;;;;;;;74.22;27.67;;;;;;;;;;5065343;28;20337;-60
2023/10/21 01:45:08;;;;;;;78.78;26.92;;;;;;;;;;5065206;28;20045;-60
2023/10/21 01:47:35;;;;;;;69.55;25.75;;;;;;;;;;5071531;28;20048;-60
2023/10/21 01:50:03;;;;;;;76.40;27.00;;;;;;;;;;5067003;28;20423;-60
2023/10/21 01:52:29;;;;;;;73.97;26.60;;;;;;;;;;5070315;28;20079;-60
2023/10/21 01:54:55;;;;;;;65.25;24.58;;;;;;;;;;5068970;28;20049;-60
2023/10/21 01:57:22;;;;;;;71.93;26.00;;;;;;;;;;5069482;28;20052;-60
2023/10/21 01:59:49;;;;;;;71.47;25.45;;;;;;;;;;5071070;28;20454;-60
2023/10/21 02:02:15;;;;;;;73.57;26.52;;;;;;;;;;5070101;28;20116;-60
2023/10/21 02:04:42;;;;;;;66.95;24.63;;;;;;;;;;5068694;28;20045;-60
2023/10/21 02:07:09;;;;;;;62.00;24.80;;;;;;;;;;5071309;28;20055;-60
2023/10/21 02:09:36;;;;;;;63.10;25.10;;;;;;;;;;5070221;28;20063;-60
2023/10/21 02:12:03;;;;;;;58.85;23.67;;;;;;;;;;5069082;28;20048;-60
2023/10/21 02:14:29;;;;;;;60.05;23.13;;;;;;;;;;5069224;28;20505;-60
2023/10/21 02:16:56;;;;;;;57.38;22.52;;;;;;;;;;5070497;28;20036;-60
2023/10/21 02:19:22;;;;;;;59.42;22.90;;;;;;;;;;5070891;28;20074;-60
2023/10/21 02:21:48;;;;;;;55.92;22.45;;;;;;;;;;5070337;28;20048;-60
2023/10/21 02:24:14;;;;;;;66.85;24.08;;;;;;;;;;5069150;28;20109;-60
2023/10/21 02:26:41;;;;;;;64.22;21.60;;;;;;;;;;5070134;28;20411;-60
2023/10/21 02:29:07;;;;;;;51.80;20.55;;;;;;;;;;5070822;28;20053;-60
2023/10/21 02:31:33;;;;;;;58.10;21.27;;;;;;;;;;5070092;28;20051;-60
2023/10/21 02:33:59;;;;;;;56.72;21.55;;;;;;;;;;5069968;28;20388;-60
2023/10/21 02:36:26;;;;;;;53.17;19.60;;;;;;;;;;5070587;28;20174;-60
2023/10/21 02:38:53;;;;;;;61.65;20.80;;;;;;;;;;5068743;28;20041;-60
2023/10/21 02:41:19;;;;;;;58.65;21.33;;;;;;;;;;5069507;28;20480;-60
2023/10/21 02:43:45;;;;;;;46.55;20.58;;;;;;;;;;5069239;28;20048;-60
2023/10/21 02:46:12;;;;;;;43.63;19.17;;;;;;;;;;5068312;28;20137;-60
2023/10/21 02:48:39;;;;;;;47.65;19.63;;;;;;;;;;5070545;28;20067;-60
2023/10/21 02:51:10;;;;;;;45.60;20.05;;;;;;;;;;5068219;28;20079;-60
2023/10/21 02:53:36;;;;;;;52.33;21.05;;;;;;;;;;5067238;28;20515;-60
2023/10/21 02:56:09;;;;;;;56.15;21.42;;;;;;;;;;5065830;28;20149;-60
2023/10/21 02:58:36;;;;;;;54.78;19.10;;;;;;;;;;5076527;28;20469;-60
2023/10/21 03:01:15;;;;;;;45.38;19.83;;;;;;;;;;5065574;28;20036;-60
2023/10/21 03:03:42;;;;;;;48.22;18.77;;;;;;;;;;5065843;28;20119;-60
2023/10/21 03:06:08;;;;;;;42.15;18.25;;;;;;;;;;5068075;28;20089;-60
2023/10/21 03:08:35;;;;;;;42.83;18.60;;;;;;;;;;5070247;28;20078;-60
2023/10/21 03:11:05;;;;;;;39.22;18.15;;;;;;;;;;5070053;28;20063;-60
2023/10/21 03:13:31;;;;;;;50.30;19.45;;;;;;;;;;5066391;28;20045;-60
2023/10/21 03:15:58;;;;;;;45.22;18.98;;;;;;;;;;5069425;28;20108;-60
2023/10/21 03:18:24;;;;;;;40.22;18.00;;;;;;;;;;5069220;28;20047;-60
2023/10/21 03:20:50;;;;;;;40.97;17.98;;;;;;;;;;5068024;28;20113;-60
2023/10/21 03:23:18;;;;;;;36.88;17.75;;;;;;;;;;5066218;28;20044;-60
2023/10/21 03:25:44;;;;;;;36.50;16.67;;;;;;;;;;5066914;28;20180;-60
2023/10/21 03:28:10;;;;;;;42.88;17.40;;;;;;;;;;5051091;28;20551;-61
2023/10/21 03:30:37;;;;;;;35.60;16.65;;;;;;;;;;5069242;28;20076;-60
2023/10/21 03:33:03;;;;;;;35.92;16.27;;;;;;;;;;5069208;28;20049;-60
2023/10/21 03:35:29;;;;;;;33.60;15.85;;;;;;;;;;5068361;28;20036;-60
2023/10/21 03:37:55;;;;;;;29.88;15.25;;;;;;;;;;5070234;28;20189;-60
2023/10/21 03:40:22;;;;;;;36.75;16.35;;;;;;;;;;5067875;28;20388;-60
2023/10/21 03:42:48;;;;;;;38.78;17.42;;;;;;;;;;5069433;28;20047;-60
2023/10/21 03:45:14;;;;;;;37.13;15.93;;;;;;;;;;5070090;28;20116;-60
2023/10/21 03:47:40;;;;;;;30.63;16.42;;;;;;;;;;5068283;28;20165;-60
2023/10/21 03:50:06;;;;;;;32.75;14.75;;;;;;;;;;5072207;28;20056;-60
2023/10/21 03:52:33;;;;;;;32.28;15.48;;;;;;;;;;5069430;28;20496;-60
2023/10/21 03:54:59;;;;;;;30.33;15.18;;;;;;;;;;5071456;28;20137;-60
2023/10/21 03:57:25;;;;;;;32.38;15.63;;;;;;;;;;5069623;28;20100;-60
2023/10/21 03:59:51;;;;;;;29.42;14.40;;;;;;;;;;5065119;28;20055;-60
2023/10/21 04:02:17;;;;;;;34.55;15.43;;;;;;;;;;5067309;28;20120;-60
2023/10/21 04:04:43;;;;;;;34.70;15.90;;;;;;;;;;5071397;28;20047;-60
2023/10/21 04:07:10;;;;;;;35.22;15.30;;;;;;;;;;5072024;28;20474;-60
2023/10/21 04:09:36;;;;;;;32.25;14.70;;;;;;;;;;5070726;28;20066;-60
2023/10/21 04:12:02;;;;;;;31.98;15.20;;;;;;;;;;5073439;28;20036;-60
2023/10/21 04:14:29;;;;;;;35.80;14.35;;;;;;;;;;5073184;28;20136;-60
2023/10/21 04:16:55;;;;;;;26.55;14.25;;;;;;;;;;5072672;28;20060;-60
2023/10/21 04:19:21;;;;;;;33.80;15.18;;;;;;;;;;5072248;28;20401;-60
2023/10/21 04:21:47;;;;;;;33.70;15.80;;;;;;;;;;5069425;28;20110;-60
2023/10/21 04:24:15;;;;;;;33.78;14.85;;;;;;;;;;5072451;28;20116;-60
2023/10/21 04:26:41;;;;;;;39.22;16.55;;;;;;;;;;5073105;28;20052;-60
2023/10/21 04:29:08;;;;;;;32.63;15.18;;;;;;;;;;5072948;28;20108;-60
2023/10/21 04:31:35;;;;;;;36.67;17.77;;;;;;;;;;5070358;28;20087;-60
2023/10/21 04:34:02;;;;;;;37.30;16.45;;;;;;;;;;5073255;28;20128;-60
2023/10/21 04:36:29;;;;;;;37.15;16.38;;;;;;;;;;5071362;28;20112;-60
2023/10/21 04:38:55;;;;;;;42.00;17.27;;;;;;;;;;5071629;28;20047;-60
2023/10/21 04:41:21;;;;;;;45.10;17.83;;;;;;;;;;5071149;28;20060;-60
2023/10/21 04:43:47;;;;;;;48.88;19.65;;;;;;;;;;5072041;28;20114;-60
2023/10/21 04:46:15;;;;;;;46.20;19.45;;;;;;;;;;5072788;28;20045;-60
2023/10/21 04:48:42;;;;;;;54.70;20.42;;;;;;;;;;5071852;28;20409;-60
2023/10/21 04:51:09;;;;;;;52.60;20.33;;;;;;;;;;5069790;28;20059;-60
2023/10/21 04:53:39;;;;;;;57.58;22.10;;;;;;;;;;5070009;28;20040;-60
2023/10/21 04:56:08;;;;;;;64.90;22.83;;;;;;;;;;5061378;28;20045;-60
2023/10/21 04:58:35;;;;;;;61.67;24.25;;;;;;;;;;5063693;28;20041;-60
2023/10/21 05:01:05;;;;;;;60.70;23.95;;;;;;;;;;5069324;28;20064;-60
2023/10/21 05:03:31;;;;;;;71.93;24.65;;;;;;;;;;5064657;28;20064;-60
2023/10/21 05:05:58;;;;;;;68.85;26.23;;;;;;;;;;5063236;28;20101;-60
2023/10/21 05:08:24;;;;;;;61.38;26.90;;;;;;;;;;5069712;28;20123;-60
2023/10/21 05:10:50;;;;;;;72.15;27.00;;;;;;;;;;5071623;28;20056;-60
2023/10/21 05:13:16;;;;;;;67.28;26.50;;;;;;;;;;5062740;28;20066;-60
2023/10/21 05:15:44;;;;;;;73.53;27.65;;;;;;;;;;5072327;28;20052;-60
2023/10/21 05:18:10;;;;;;;73.22;28.17;;;;;;;;;;5072271;28;20043;-60
2023/10/21 05:20:36;;;;;;;67.95;27.55;;;;;;;;;;5068193;28;20413;-60
2023/10/21 05:23:03;;;;;;;72.18;29.50;;;;;;;;;;5069514;28;20049;-60
2023/10/21 05:25:29;;;;;;;74.20;28.95;;;;;;;;;;5072187;28;20106;-60
2023/10/21 05:27:55;;;;;;;73.20;29.58;;;;;;;;;;5071140;28;20051;-59
2023/10/21 05:30:21;;;;;;;75.22;30.60;;;;;;;;;;5069865;28;20106;-60
2023/10/21 05:32:48;;;;;;;79.32;32.35;;;;;;;;;;5066165;28;20421;-60
2023/10/21 05:35:14;;;;;;;70.68;31.65;;;;;;;;;;5070177;28;20036;-60
2023/10/21 05:37:40;;;;;;;89.95;33.58;;;;;;;;;;5069668;28;20040;-60
2023/10/21 05:40:07;;;;;;;76.70;32.00;;;;;;;;;;5068075;28;20040;-60
2023/10/21 05:42:33;;;;;;;82.88;34.40;;;;;;;;;;5067863;28;20044;-60
2023/10/21 05:45:00;;;;;;;71.85;32.10;;;;;;;;;;5071861;28;20552;-60
2023/10/21 05:47:26;;;;;;;79.55;32.70;;;;;;;;;;5070446;28;20424;-60
2023/10/21 05:49:53;;;;;;;71.28;31.52;;;;;;;;;;5069685;28;20109;-60
2023/10/21 05:52:19;;;;;;;74.20;32.30;;;;;;;;;;5068751;28;20048;-60
2023/10/21 05:54:45;;;;;;;71.53;33.63;;;;;;;;;;5068991;28;20373;-60
2023/10/21 05:57:12;;;;;;;76.78;32.40;;;;;;;;;;5071021;28;20097;-60
2023/10/21 05:59:39;;;;;;;82.70;32.15;;;;;;;;;;5066944;28;20055;-60
2023/10/21 06:02:05;;;;;;;77.85;34.03;;;;;;;;;;5064304;28;20041;-60
2023/10/21 06:04:31;;;;;;;80.53;33.67;;;;;;;;;;5065538;28;20123;-60
2023/10/21 06:06:57;;;;;;;75.50;32.70;;;;;;;;;;5066384;28;20045;-60
2023/10/21 06:09:24;;;;;;;79.28;33.08;;;;;;;;;;5063826;28;20044;-60
2023/10/21 06:11:51;;;;;;;76.50;30.95;;;;;;;;;;5070230;28;20531;-60
2023/10/21 06:14:17;;;;;;;83.65;34.15;;;;;;;;;;5070099;28;20032;-60
2023/10/21 06:16:44;;;;;;;78.65;32.53;;;;;;;;;;5067047;28;20036;-60
2023/10/21 06:19:10;;;;;;;76.25;32.40;;;;;;;;;;5065797;28;20041;-60
2023/10/21 06:21:37;;;;;;;71.07;30.92;;;;;;;;;;5067057;28;20087;-60
2023/10/21 06:24:04;;;;;;;77.03;31.08;;;;;;;;;;5069502;28;20119;-61
2023/10/21 06:26:33;;;;;;;72.85;30.55;;;;;;;;;;5069431;28;20136;-61
2023/10/21 06:29:00;;;;;;;68.40;30.30;;;;;;;;;;5069870;28;20449;-61
2023/10/21 06:31:29;;;;;;;73.95;31.75;;;;;;;;;;5070098;28;20439;-60
2023/10/21 06:33:55;;;;;;;68.22;30.75;;;;;;;;;;5068666;28;20032;-61
2023/10/21 06:36:21;;;;;;;73.95;32.92;;;;;;;;;;5066988;28;20072;-61
2023/10/21 06:38:50;;;;;;;85.68;32.25;;;;;;;;;;5065788;28;20055;-61
2023/10/21 06:41:17;;;;;;;66.00;31.30;;;;;;;;;;5058634;28;20096;-60
2023/10/21 06:43:43;;;;;;;70.10;30.52;;;;;;;;;;5060114;28;20055;-61
2023/10/21 06:46:09;;;;;;;73.78;31.80;;;;;;;;;;5065295;28;20100;-61
2023/10/21 06:48:36;;;;;;;68.40;31.75;;;;;;;;;;5063374;28;20067;-61
2023/10/21 06:51:04;;;;;;;70.07;30.73;;;;;;;;;;5061599;28;20045;-61
2023/10/21 06:53:30;;;;;;;60.83;29.77;;;;;;;;;;5065739;28;20171;-61
2023/10/21 06:55:56;;;;;;;66.28;30.83;;;;;;;;;;5065264;28;20048;-61
2023/10/21 06:58:22;;;;;;;68.03;29.98;;;;;;;;;;5063393;28;20101;-61
2023/10/21 07:00:49;;;;;;;66.90;31.35;;;;;;;;;;5060155;28;20129;-60
2023/10/21 07:03:15;;;;;;;60.00;29.13;;;;;;;;;;5061916;28;20119;-61
2023/10/21 07:05:41;;;;;;;63.75;29.92;;;;;;;;;;5061906;28;20052;-60
2023/10/21 07:08:07;;;;;;;60.58;29.73;;;;;;;;;;5065597;28;20389;-60
2023/10/21 07:10:34;;;;;;;60.75;29.95;;;;;;;;;;5065260;28;20033;-60
2023/10/21 07:13:01;;;;;;;63.03;28.63;;;;;;;;;;5064640;28;20056;-60
2023/10/21 07:15:28;;;;;;;63.15;31.00;;;;;;;;;;5062227;28;20049;-60
2023/10/21 07:17:54;;;;;;;60.25;30.48;;;;;;;;;;5063766;28;20140;-60
2023/10/21 07:20:21;;;;;;;60.50;30.45;;;;;;;;;;5064916;28;20052;-60
2023/10/21 07:22:49;;;;;;;60.38;29.80;;;;;;;;;;5066249;28;20072;-60
2023/10/21 07:25:18;;;;;;;57.92;30.02;;;;;;;;;;5066152;28;20046;-61
2023/10/21 07:27:44;;;;;;;57.42;29.05;;;;;;;;;;5064802;28;20047;-60
2023/10/21 07:30:10;;;;;;;61.75;30.88;;;;;;;;;;5065913;28;20111;-61
2023/10/21 07:32:36;;;;;;;58.88;29.98;;;;;;;;;;5068001;28;20045;-61
2023/10/21 07:35:03;;;;;;;58.60;29.17;;;;;;;;;;5064140;28;20059;-60
2023/10/21 07:37:30;;;;;;;59.05;29.48;;;;;;;;;;5066923;28;20085;-61
2023/10/21 07:39:58;;;;;;;60.35;29.08;;;;;;;;;;5066397;28;20111;-61
2023/10/21 07:42:27;;;;;;;56.28;29.48;;;;;;;;;;5067800;28;20424;-61
2023/10/21 07:44:53;;;;;;;57.90;29.33;;;;;;;;;;5067588;28;20036;-61
2023/10/21 07:47:20;;;;;;;57.58;28.95;;;;;;;;;;5067938;28;20109;-61
2023/10/21 07:49:47;;;;;;;64.22;28.73;;;;;;;;;;5067595;28;20041;-61
2023/10/21 07:52:14;;;;;;;60.40;27.88;;;;;;;;;;5068124;28;20064;-61
2023/10/21 07:54:40;;;;;;;61.15;28.00;;;;;;;;;;5067643;28;20040;-61
2023/10/21 07:57:08;;;;;;;53.33;26.63;;;;;;;;;;5063829;28;20143;-61
2023/10/21 07:59:34;;;;;;;49.22;26.63;;;;;;;;;;5068052;28;20116;-61
2023/10/21 08:02:01;;;;;;;55.00;27.40;;;;;;;;;;5066776;28;20045;-61
2023/10/21 08:04:27;;;;;;;56.63;25.77;;;;;;;;;;5065853;28;20443;-61
2023/10/21 08:06:53;;;;;;;53.13;23.95;;;;;;;;;;5067867;28;20400;-61
2023/10/21 08:09:20;;;;;;;46.90;24.17;;;;;;;;;;5067470;28;20041;-61
2023/10/21 08:11:47;;;;;;;52.70;25.65;;;;;;;;;;5065184;28;20104;-61
2023/10/21 08:14:13;;;;;;;47.80;24.65;;;;;;;;;;5066462;28;20135;-61
2023/10/21 08:16:39;;;;;;;44.92;24.92;;;;;;;;;;5064964;28;20044;-61
2023/10/21 08:19:06;;;;;;;38.67;23.15;;;;;;;;;;5068167;28;20029;-61
2023/10/21 08:21:35;;;;;;;42.42;22.92;;;;;;;;;;5067668;28;20105;-61
2023/10/21 08:24:02;;;;;;;43.40;23.13;;;;;;;;;;5066863;28;20061;-61
2023/10/21 08:26:31;;;;;;;38.47;21.88;;;;;;;;;;5065874;28;20044;-61
2023/10/21 08:28:57;;;;;;;36.70;22.42;;;;;;;;;;5065118;28;20198;-61
2023/10/21 08:31:24;;;;;;;36.42;22.25;;;;;;;;;;5066216;28;20036;-61
2023/10/21 08:33:52;;;;;;;46.38;21.40;;;;;;;;;;5062413;28;20403;-61
2023/10/21 08:36:19;;;;;;;34.22;20.60;;;;;;;;;;5064090;28;20049;-61
2023/10/21 08:38:48;;;;;;;30.65;20.42;;;;;;;;;;5064434;28;20565;-61
2023/10/21 08:41:15;;;;;;;32.47;19.90;;;;;;;;;;5062997;28;20049;-61
2023/10/21 08:43:48;;;;;;;30.67;19.35;;;;;;;;;;5061058;28;20044;-61
2023/10/21 08:46:15;;;;;;;37.07;21.00;;;;;;;;;;5064434;28;20524;-61
2023/10/21 08:48:46;;;;;;;34.65;20.48;;;;;;;;;;5062193;28;20050;-61
2023/10/21 08:51:16;;;;;;;28.88;19.85;;;;;;;;;;5062720;28;20050;-61
2023/10/21 08:53:44;;;;;;;40.83;19.83;;;;;;;;;;5063368;28;20396;-61
2023/10/21 08:56:11;;;;;;;27.35;18.23;;;;;;;;;;5063086;28;20434;-61
2023/10/21 08:58:38;;;;;;;33.60;19.13;;;;;;;;;;5063670;28;20040;-61
2023/10/21 09:01:05;;;;;;;24.02;18.30;;;;;;;;;;5061160;28;20124;-61
2023/10/21 09:03:32;;;;;;;26.92;17.83;;;;;;;;;;5062928;28;21184;-61
2023/10/21 09:06:12;;;;;;;27.50;16.40;;;;;;;;;;5059449;28;20048;-61
2023/10/21 09:08:42;;;;;;;26.77;14.85;;;;;;;;;;5063834;28;20090;-61
2023/10/21 09:11:11;;;;;;;21.08;14.25;;;;;;;;;;5062485;28;20132;-61
2023/10/21 09:13:39;;;;;;;21.13;14.23;;;;;;;;;;5062627;28;20087;-61
2023/10/21 09:16:19;;;;;;;18.15;13.20;;;;;;;;;;5068168;28;20037;-61
2023/10/21 09:19:00;;;;;;;22.33;12.43;;;;;;;;;;5071430;28;20124;-62
2023/10/21 09:21:45;;;;;;;24.33;11.55;;;;;;;;;;5063529;28;20406;-60
2023/10/21 09:24:23;;;;;;;19.27;11.45;;;;;;;;;;5064151;28;20037;-60
2023/10/21 09:26:49;;;;;;;17.90;10.90;;;;;;;;;;5068747;28;20037;-61
2023/10/21 09:29:20;;;;;;;16.20;10.05;;;;;;;;;;5069815;28;20063;-61
2023/10/21 09:31:47;;;;;;;20.10;10.70;;;;;;;;;;5069887;28;20074;-61
2023/10/21 09:34:30;;;;;;;15.98;9.52;;;;;;;;;;5071455;28;20040;-61
2023/10/21 09:36:58;;;;;;;19.73;9.35;;;;;;;;;;5071660;28;20120;-61
2023/10/21 09:39:26;;;;;;;17.92;10.05;;;;;;;;;;5070535;28;20086;-61
2023/10/21 09:41:52;;;;;;;15.95;9.02;;;;;;;;;;5066563;28;20083;-61
2023/10/21 09:44:18;;;;;;;14.60;8.88;;;;;;;;;;5070438;28;20392;-61
2023/10/21 09:46:45;;;;;;;15.75;10.10;;;;;;;;;;5064976;28;20039;-61
2023/10/21 09:49:16;;;;;;;15.25;8.27;;;;;;;;;;5071462;28;20062;-61
2023/10/21 09:51:47;;;;;;;15.23;7.00;;;;;;;;;;5070013;28;20045;-61
2023/10/21 09:54:14;;;;;;;12.80;7.25;;;;;;;;;;5070655;28;20087;-61
2023/10/21 09:56:40;;;;;;;12.80;7.38;;;;;;;;;;5068880;28;20184;-61
2023/10/21 09:59:07;;;;;;;15.50;7.60;;;;;;;;;;5070207;28;20049;-61
2023/10/21 10:01:37;;;;;;;14.43;7.55;;;;;;;;;;5069045;28;20051;-61
2023/10/21 10:04:05;;;;;;;13.23;6.75;;;;;;;;;;5070332;28;20119;-61
2023/10/21 10:06:32;;;;;;;14.43;7.07;;;;;;;;;;5070626;28;20048;-61
2023/10/21 10:08:58;;;;;;;12.43;7.00;;;;;;;;;;5065987;28;20054;-61
2023/10/21 10:11:25;;;;;;;10.82;5.78;;;;;;;;;;5066441;28;20182;-61
2023/10/21 10:13:53;;;;;;;12.93;5.75;;;;;;;;;;5071183;28;20041;-61
2023/10/21 10:16:20;;;;;;;12.50;6.07;;;;;;;;;;5069545;28;20064;-61
2023/10/21 10:18:48;;;;;;;10.20;7.18;;;;;;;;;;5070377;28;20040;-61
2023/10/21 10:21:15;;;;;;;17.15;7.07;;;;;;;;;;5067934;28;20048;-61
2023/10/21 10:23:48;;;;;;;11.27;6.35;;;;;;;;;;5070969;28;20071;-61
2023/10/21 10:26:32;;;;;;;11.75;6.00;;;;;;;;;;5071133;28;20488;-62
2023/10/21 10:29:02;;;;;;;6.82;4.63;;;;;;;;;;5057207;28;20052;-62
2023/10/21 10:31:29;;;;;;;8.82;5.40;;;;;;;;;;5065113;28;20052;-61
2023/10/21 10:33:55;;;;;;;11.18;4.60;;;;;;;;;;5069684;28;20142;-61
2023/10/21 10:36:30;;;;;;;11.13;4.78;;;;;;;;;;5069949;28;20095;-61
2023/10/21 10:38:57;;;;;;;6.63;4.40;;;;;;;;;;5071262;28;20109;-61
2023/10/21 10:41:23;;;;;;;9.43;4.68;;;;;;;;;;5069490;28;20095;-61
2023/10/21 10:44:01;;;;;;;7.70;4.95;;;;;;;;;;5068308;28;20044;-61
2023/10/21 10:46:28;;;;;;;12.65;5.70;;;;;;;;;;5068238;28;20059;-61
2023/10/21 10:48:55;;;;;;;8.90;5.03;;;;;;;;;;5068795;28;20413;-61
2023/10/21 10:51:27;;;;;;;7.72;5.18;;;;;;;;;;5068738;28;20117;-61
2023/10/21 10:53:56;;;;;;;7.43;5.35;;;;;;;;;;5070809;28;20040;-61
2023/10/21 10:56:25;;;;;;;10.00;5.88;;;;;;;;;;5069994;28;20079;-61
2023/10/21 10:58:52;;;;;;;10.13;6.05;;;;;;;;;;5074017;28;20048;-61
2023/10/21 11:01:25;;;;;;;7.93;5.45;;;;;;;;;;5076622;28;20392;-61
2023/10/21 11:04:01;;;;;;;12.33;5.40;;;;;;;;;;5074637;28;20096;-61
2023/10/21 11:06:35;;;;;;;10.98;4.88;;;;;;;;;;5077084;28;20051;-61
2023/10/21 11:09:01;;;;;;;;;;;;;;;;;;5077228;28;20041;-61
2023/10/21 11:11:27;;;;;;;10.98;4.55;;;;;;;;;;5076121;28;19920;-61
2023/10/21 11:13:54;;;;;;;9.30;4.50;;;;;;;;;;5076263;28;20055;-61
2023/10/21 11:16:20;;;;;;;9.80;4.90;;;;;;;;;;5077060;28;20071;-61
2023/10/21 11:18:46;;;;;;;8.50;4.90;;;;;;;;;;5073728;28;20041;-61
2023/10/21 11:21:13;;;;;;;7.05;4.38;;;;;;;;;;5077053;28;20082;-61
2023/10/21 11:23:39;;;;;;;11.35;5.03;;;;;;;;;;5077126;28;20041;-61
2023/10/21 11:26:07;;;;;;;9.13;4.88;;;;;;;;;;5076230;28;20063;-61
2023/10/21 11:28:36;;;;;;;9.55;4.88;;;;;;;;;;5076082;28;20084;-62
2023/10/21 11:31:03;;;;;;;9.43;4.90;;;;;;;;;;5077208;28;20049;-61
2023/10/21 11:33:29;;;;;;;6.93;4.15;;;;;;;;;;5072551;28;20170;-61
2023/10/21 11:35:57;;;;;;;7.25;3.25;;;;;;;;;;5076074;28;20041;-61
2023/10/21 11:38:24;;;;;;;7.70;3.10;;;;;;;;;;5075888;28;20040;-61
2023/10/21 11:40:50;;;;;;;5.00;2.70;;;;;;;;;;5076586;28;20123;-61
2023/10/21 11:43:18;;;;;;;4.60;1.80;;;;;;;;;;5076960;28;20132;-61
2023/10/21 11:45:49;;;;;;;6.03;2.03;;;;;;;;;;5075837;28;20076;-61
2023/10/21 11:48:16;;;;;;;4.03;1.70;;;;;;;;;;5074602;28;20151;-61
2023/10/21 11:50:47;;;;;;;3.58;1.50;;;;;;;;;;5076693;28;20071;-61
2023/10/21 11:53:13;;;;;;;3.97;1.30;;;;;;;;;;5075971;28;20526;-61
2023/10/21 11:58:55;;;;;;;5.45;1.55;;;;;;;;;;5076195;28;20093;-61
2023/10/21 12:16:32;;;;;;;4.95;1.10;;;;;;;;;;5070286;28;20057;-61
2023/10/21 12:30:46;;;;;;;4.22;1.00;;;;;;;;;;5067889;28;20045;-61
2023/10/21 12:43:35;;;;;;;5.55;0.98;;;;;;;;;;5071430;28;20445;-60
2023/10/21 12:46:17;;;;;;;3.53;1.00;;;;;;;;;;5072199;28;20040;-61
2023/10/21 12:48:51;;;;;;;6.28;1.20;;;;;;;;;;5071109;28;20099;-60
2023/10/21 12:51:17;;;;;;;;;;;;;;;;;;5071494;28;20036;-60
2023/10/21 12:53:43;;;;;;;2.75;0.95;;;;;;;;;;5072472;28;19920;-60
2023/10/21 12:56:10;;;;;;;3.70;0.93;;;;;;;;;;5072017;28;20405;-60
2023/10/21 12:58:36;;;;;;;4.72;1.20;;;;;;;;;;5071978;28;20048;-60
2023/10/21 13:01:04;;;;;;;3.88;1.10;;;;;;;;;;5058624;28;20040;-60
2023/10/21 13:03:31;;;;;;;3.28;1.00;;;;;;;;;;5071877;28;20063;-60
2023/10/21 13:05:57;;;;;;;3.15;1.00;;;;;;;;;;5070956;28;20368;-60
2023/10/21 13:08:24;;;;;;;3.15;1.20;;;;;;;;;;5071478;28;20036;-60
2023/10/21 13:10:55;;;;;;;3.42;0.80;;;;;;;;;;5069030;28;20045;-60
2023/10/21 13:13:22;;;;;;;3.55;1.08;;;;;;;;;;5070507;28;20048;-60
2023/10/21 13:15:49;;;;;;;6.07;1.20;;;;;;;;;;5071066;28;20078;-60
2023/10/21 13:18:18;;;;;;;4.15;1.10;;;;;;;;;;5070234;28;20044;-60
2023/10/21 13:20:46;;;;;;;3.88;1.42;;;;;;;;;;5072034;28;20059;-60
2023/10/21 13:23:12;;;;;;;2.53;0.90;;;;;;;;;;5069811;28;20055;-61
2023/10/21 13:25:38;;;;;;;2.67;0.80;;;;;;;;;;5070016;28;20053;-61
2023/10/21 13:28:05;;;;;;;5.60;0.98;;;;;;;;;;5070318;28;20115;-62
2023/10/21 13:30:34;;;;;;;3.55;1.25;;;;;;;;;;5065574;28;20061;-61
2023/10/21 13:33:01;;;;;;;3.35;1.00;;;;;;;;;;5065349;28;20368;-61
2023/10/21 13:35:30;;;;;;;4.65;1.40;;;;;;;;;;5068920;28;20041;-61
2023/10/21 13:37:56;;;;;;;4.55;1.00;;;;;;;;;;5061054;28;20049;-61
2023/10/21 13:40:26;;;;;;;6.07;1.00;;;;;;;;;;5069076;28;20479;-61
2023/10/21 13:42:52;;;;;;;3.38;1.00;;;;;;;;;;5071697;28;20448;-61
2023/10/21 13:45:20;;;;;;;2.35;0.90;;;;;;;;;;5067975;28;20047;-61
2023/10/21 13:47:53;;;;;;;1.95;0.70;;;;;;;;;;5071475;28;20072;-61
2023/10/21 13:50:21;;;;;;;;;;;;;;;;;;5070583;28;20040;-61
2023/10/21 13:52:51;;;;;;;5.85;1.45;;;;;;;;;;5070410;28;19926;-61
2023/10/21 13:55:18;;;;;;;3.78;1.00;;;;;;;;;;5070685;28;20052;-61
2023/10/21 13:57:47;;;;;;;7.32;1.00;;;;;;;;;;5069748;28;20044;-61
2023/10/21 14:00:34;;;;;;;3.65;1.10;;;;;;;;;;5070568;28;20036;-61
2023/10/21 14:03:11;;;;;;;6.57;1.27;;;;;;;;;;5069818;28;21578;-61
2023/10/21 14:06:07;;;;;;;4.03;0.98;;;;;;;;;;5070596;28;20052;-61
2023/10/21 14:08:34;;;;;;;7.35;1.20;;;;;;;;;;5066763;28;20067;-61
2023/10/21 14:11:01;;;;;;;5.25;0.90;;;;;;;;;;5068321;28;20387;-61
2023/10/21 14:13:32;;;;;;;3.90;0.90;;;;;;;;;;5070613;28;20047;-61
2023/10/21 14:15:59;;;;;;;7.53;1.42;;;;;;;;;;5069916;28;20079;-61
2023/10/21 14:18:25;;;;;;;4.60;0.98;;;;;;;;;;5069610;28;20110;-61
2023/10/21 14:20:53;;;;;;;5.90;1.02;;;;;;;;;;5070443;28;20431;-61
2023/10/21 14:23:20;;;;;;;3.50;1.20;;;;;;;;;;5070942;28;20121;-61
2023/10/21 14:25:49;;;;;;;4.88;1.15;;;;;;;;;;5070464;28;20044;-61
2023/10/21 14:28:16;;;;;;;6.35;1.17;;;;;;;;;;5070425;28;20056;-61
2023/10/21 14:30:42;;;;;;;4.22;1.02;;;;;;;;;;5070749;28;20075;-62
2023/10/21 14:33:12;;;;;;;5.97;1.60;;;;;;;;;;5065880;28;20068;-61
2023/10/21 14:35:39;;;;;;;6.82;0.88;;;;;;;;;;5066944;28;20036;-61
2023/10/21 14:38:06;;;;;;;3.83;1.02;;;;;;;;;;5068847;28;20086;-61
2023/10/21 14:40:32;;;;;;;7.40;1.17;;;;;;;;;;5070821;28;20052;-61
2023/10/21 14:42:58;;;;;;;9.15;1.95;;;;;;;;;;5068933;28;20041;-61
2023/10/21 14:45:24;;;;;;;3.83;1.00;;;;;;;;;;5070665;28;20059;-61
2023/10/21 14:47:51;;;;;;;4.95;1.15;;;;;;;;;;5069491;28;20044;-61
2023/10/21 14:50:17;;;;;;;5.68;1.23;;;;;;;;;;5069638;28;20052;-61
2023/10/21 14:52:43;;;;;;;5.55;1.20;;;;;;;;;;5067500;28;20045;-62
2023/10/21 14:55:09;;;;;;;3.75;1.05;;;;;;;;;;5070147;28;20124;-61
2023/10/21 14:57:36;;;;;;;4.80;1.20;;;;;;;;;;5057565;28;20114;-63
2023/10/21 15:00:08;;;;;;;5.70;1.23;;;;;;;;;;5066442;28;20052;-62
2023/10/21 15:02:36;;;;;;;8.18;1.73;;;;;;;;;;5069850;28;20102;-62
2023/10/21 15:05:03;;;;;;;4.85;1.13;;;;;;;;;;5090069;28;20446;-62
2023/10/21 15:07:29;;;;;;;7.55;1.60;;;;;;;;;;5090748;28;20101;-61